createdAt,value
2023-01-27T00:00:02.402Z,89.06
2023-01-27T00:02:04.295Z,88.93
2023-01-27T00:04:05.731Z,88.94
2023-01-27T00:06:07.018Z,89.17
2023-01-27T00:08:08.333Z,89.45
2023-01-27T00:12:10.859Z,89.11
2023-01-27T00:14:11.909Z,89.34
2023-01-27T00:18:15.120Z,89.01
2023-01-27T00:20:16.859Z,89.03
2023-01-27T00:22:18.408Z,89.11
2023-01-27T00:24:19.867Z,89
2023-01-27T00:28:22.783Z,88.99
2023-01-27T00:30:24.816Z,89.16
2023-01-27T00:32:26.012Z,89.48
2023-01-27T00:34:27.919Z,89.42
2023-01-27T00:36:29.574Z,89.25
2023-01-27T00:38:31.067Z,89.18
2023-01-27T00:40:32.801Z,89.48
2023-01-27T00:42:34.283Z,89.55
2023-01-27T00:44:35.604Z,89.51
2023-01-27T00:46:37.247Z,89.42
2023-01-27T00:48:38.428Z,89.36
2023-01-27T00:50:40.044Z,89.34
2023-01-27T00:52:41.579Z,89.26
2023-01-27T00:54:43.062Z,89.12
2023-01-27T00:56:44.163Z,89.17
2023-01-27T01:00:47.171Z,89.15
2023-01-27T01:02:49.121Z,89.13
2023-01-27T01:04:50.843Z,89.2
2023-01-27T01:06:52.088Z,89.34
2023-01-27T01:10:55.481Z,89.24
2023-01-27T01:12:56.723Z,89.38
2023-01-27T01:14:58.329Z,89.35
2023-01-27T01:17:00.032Z,89.19
2023-01-27T01:19:01.363Z,89.33
2023-01-27T01:21:02.528Z,89.33
2023-01-27T01:23:03.776Z,89.28
2023-01-27T01:25:04.960Z,88.99
2023-01-27T01:27:07.017Z,89.13
2023-01-27T01:29:08.267Z,89.15
2023-01-27T01:31:09.526Z,89.37
2023-01-27T01:33:11.401Z,89.44
2023-01-27T01:35:12.823Z,89.65
2023-01-27T01:37:14.463Z,89.88
2023-01-27T01:39:15.617Z,89.93
2023-01-27T01:41:17.436Z,90.02
2023-01-27T01:43:19.373Z,89.93
2023-01-27T01:45:20.670Z,89.92
2023-01-27T01:47:22.745Z,90.03
2023-01-27T01:49:24.174Z,90.06
2023-01-27T01:53:27.397Z,90.05
2023-01-27T01:55:29.224Z,90.08
2023-01-27T01:57:31.212Z,90.2
2023-01-27T01:59:32.555Z,90.23
2023-01-27T02:01:34.591Z,90.33
2023-01-27T02:03:36.528Z,90.58
2023-01-27T02:05:38.453Z,90.53
2023-01-27T02:07:40.214Z,90.41
2023-01-27T02:09:41.436Z,90.3
2023-01-27T02:11:43.475Z,90.36
2023-01-27T02:13:45.302Z,90.53
2023-01-27T02:15:47.085Z,90.82
2023-01-27T02:17:48.585Z,90.56
2023-01-27T02:19:50.514Z,90.39
2023-01-27T02:21:52.611Z,90.08
2023-01-27T02:25:55.665Z,90.6
2023-01-27T02:27:57.342Z,90.63
2023-01-27T02:29:59.038Z,90.18
2023-01-27T02:32:00.613Z,90.16
2023-01-27T02:36:03.209Z,90.28
2023-01-27T02:38:04.653Z,90.35
2023-01-27T02:40:05.858Z,90.63
2023-01-27T02:42:07.377Z,90.35
2023-01-27T02:44:09.142Z,90.51
2023-01-27T02:46:10.844Z,90.67
2023-01-27T02:48:12.506Z,90.77
2023-01-27T02:50:14.291Z,90.93
2023-01-27T02:52:16.215Z,91.06
2023-01-27T02:54:17.296Z,90.66
2023-01-27T02:56:18.954Z,90.62
2023-01-27T02:58:20.971Z,90.59
2023-01-27T03:00:22.451Z,90.69
2023-01-27T03:02:24.190Z,90.7
2023-01-27T03:04:25.802Z,90.6
2023-01-27T03:06:27.164Z,90.47
2023-01-27T03:08:29.033Z,90.38
2023-01-27T03:10:30.857Z,90.54
2023-01-27T03:12:32.014Z,90.24
2023-01-27T03:14:33.123Z,89.98
2023-01-27T03:18:35.691Z,89.34
2023-01-27T03:20:37.044Z,89.34
2023-01-27T03:22:38.356Z,89.44
2023-01-27T03:24:39.668Z,89.63
2023-01-27T03:26:40.813Z,89.75
2023-01-27T03:28:42.129Z,89.51
2023-01-27T03:30:43.341Z,89.44
2023-01-27T03:32:44.500Z,89.26
2023-01-27T03:34:45.961Z,89.67
2023-01-27T03:36:47.197Z,89.61
2023-01-27T03:38:48.828Z,90.38
2023-01-27T03:40:50.056Z,89.77
2023-01-27T03:42:51.623Z,90.22
2023-01-27T03:44:53.646Z,90.09
2023-01-27T03:46:54.876Z,90.55
2023-01-27T03:48:56.185Z,89.99
2023-01-27T03:50:57.492Z,90.39
2023-01-27T03:52:58.950Z,90.4
2023-01-27T03:55:00.575Z,90.55
2023-01-27T03:57:02.199Z,90.37
2023-01-27T04:01:05.770Z,90.43
2023-01-27T04:03:07.115Z,90.52
2023-01-27T04:05:08.753Z,90.46
2023-01-27T04:07:09.947Z,90.79
2023-01-27T04:09:11.211Z,90.84
2023-01-27T04:11:12.955Z,90.69
2023-01-27T04:13:14.264Z,90.79
2023-01-27T04:15:15.649Z,90.97
2023-01-27T04:17:16.933Z,90.89
2023-01-27T04:23:21.708Z,90.84
2023-01-27T04:25:22.861Z,90.83
2023-01-27T04:27:24.867Z,91.19
2023-01-27T04:29:26.307Z,91.12
2023-01-27T04:33:29.041Z,91.03
2023-01-27T04:35:38.513Z,91.05
2023-01-27T04:37:32.590Z,91.34
2023-01-27T04:39:34.012Z,91.16
2023-01-27T04:41:35.806Z,91.15
2023-01-27T04:43:37.228Z,91.37
2023-01-27T04:45:38.435Z,91.31
2023-01-27T04:47:40.229Z,91.67
2023-01-27T04:49:41.372Z,91.56
2023-01-27T04:51:42.697Z,91.52
2023-01-27T04:53:44.434Z,91.84
2023-01-27T04:55:46.133Z,91.94
2023-01-27T04:57:47.313Z,91.9
2023-01-27T04:58:31.281Z,91.55
2023-01-27T05:00:32.529Z,91.33
2023-01-27T05:02:34.308Z,91.55
2023-01-27T05:04:35.779Z,91.22
2023-01-27T05:06:37.175Z,91.28
2023-01-27T05:10:40.661Z,91.2
2023-01-27T05:12:42.619Z,91.03
2023-01-27T05:14:44.313Z,91.07
2023-01-27T05:16:45.406Z,91.04
2023-01-27T05:18:47.072Z,91.02
2023-01-27T05:20:50.819Z,91.13
2023-01-27T05:22:50.871Z,90.97
2023-01-27T05:24:52.564Z,90.67
2023-01-27T05:26:54.329Z,90.92
2023-01-27T05:28:55.748Z,90.9
2023-01-27T05:30:57.371Z,91.07
2023-01-27T05:32:58.472Z,90.51
2023-01-27T05:35:00.106Z,90.71
2023-01-27T05:37:01.893Z,90.42
2023-01-27T05:39:02.996Z,90.38
2023-01-27T05:43:05.910Z,89.53
2023-01-27T05:45:07.480Z,89.62
2023-01-27T05:47:09.146Z,89.97
2023-01-27T05:49:11.011Z,89.43
2023-01-27T05:53:14.379Z,88.93
2023-01-27T05:55:16.276Z,88.68
2023-01-27T05:57:18.056Z,89.41
2023-01-27T05:59:19.774Z,88.95
2023-01-27T06:01:21.243Z,88.74
2023-01-27T06:03:22.822Z,89.06
2023-01-27T06:05:23.960Z,89.03
2023-01-27T06:07:25.070Z,88.89
2023-01-27T06:09:26.280Z,88.99
2023-01-27T06:11:28.189Z,89.2
2023-01-27T06:13:29.802Z,88.6
2023-01-27T06:15:31.188Z,88.75
2023-01-27T06:17:32.582Z,88.65
2023-01-27T06:19:33.708Z,88.59
2023-01-27T06:21:35.270Z,88.47
2023-01-27T06:23:36.424Z,88.61
2023-01-27T06:25:37.774Z,88.53
2023-01-27T06:27:39.652Z,88.77
2023-01-27T06:29:41.621Z,88.76
2023-01-27T06:31:43.030Z,89.1
2023-01-27T06:33:44.111Z,88.91
2023-01-27T06:35:46.158Z,89
2023-01-27T06:37:47.371Z,89.49
2023-01-27T06:41:50.093Z,89.41
2023-01-27T06:43:51.315Z,88.95
2023-01-27T06:45:52.567Z,89.05
2023-01-27T06:47:53.901Z,89.05
2023-01-27T06:51:56.897Z,89.11
2023-01-27T06:53:58.094Z,89.21
2023-01-27T06:55:59.786Z,89.01
2023-01-27T06:58:00.932Z,88.66
2023-01-27T07:00:02.524Z,88.83
2023-01-27T07:02:04.504Z,88.65
2023-01-27T07:04:05.617Z,88.97
2023-01-27T07:06:06.954Z,88.27
2023-01-27T07:08:08.899Z,88.56
2023-01-27T07:10:11.179Z,88.46
2023-01-27T07:12:12.457Z,88.35
2023-01-27T07:14:14.285Z,88.83
2023-01-27T07:16:15.969Z,88.72
2023-01-27T07:18:17.376Z,88.44
2023-01-27T07:20:18.817Z,88.54
2023-01-27T07:22:20.702Z,88.25
2023-01-27T07:24:22.248Z,88.14
2023-01-27T07:26:25.244Z,88.54
2023-01-27T07:28:25.824Z,88.22
2023-01-27T07:30:27.845Z,88.73
2023-01-27T07:34:31.311Z,88.62
2023-01-27T07:36:32.909Z,88.84
2023-01-27T07:38:34.759Z,88.68
2023-01-27T07:40:36.445Z,88.46
2023-01-27T07:42:37.974Z,88.76
2023-01-27T07:44:39.694Z,88.61
2023-01-27T07:46:41.075Z,88.53
2023-01-27T07:48:42.774Z,88.28
2023-01-27T07:50:44.718Z,88.21
2023-01-27T07:52:46.512Z,88.29
2023-01-27T07:54:47.669Z,88.22
2023-01-27T07:56:49.597Z,88.25
2023-01-27T07:58:51.538Z,87.69
2023-01-27T08:00:52.880Z,88.35
2023-01-27T08:02:54.340Z,88.29
2023-01-27T08:06:57.529Z,88.16
2023-01-27T08:08:58.895Z,88.17
2023-01-27T08:10:59.944Z,87.84
2023-01-27T08:13:01.538Z,88.19
2023-01-27T08:17:04.698Z,88.01
2023-01-27T08:19:05.853Z,88.21
2023-01-27T08:21:07.299Z,88.29
2023-01-27T08:23:09.192Z,88.07
2023-01-27T08:25:10.766Z,88.67
2023-01-27T08:27:11.872Z,88.1
2023-01-27T08:29:13.410Z,88.18
2023-01-27T08:31:14.797Z,88.41
2023-01-27T08:33:15.615Z,88.07
2023-01-27T08:35:17.012Z,88.29
2023-01-27T08:37:18.314Z,88.77
2023-01-27T08:39:19.486Z,88.16
2023-01-27T08:41:20.622Z,88.09
2023-01-27T08:43:22.046Z,88.38
2023-01-27T08:45:23.773Z,88.6
2023-01-27T08:49:26.342Z,88.72
2023-01-27T08:51:27.466Z,88.27
2023-01-27T08:53:29.447Z,88.09
2023-01-27T08:55:31.033Z,88.08
2023-01-27T08:59:34.640Z,88.9
2023-01-27T09:01:36.448Z,88.22
2023-01-27T09:03:37.637Z,88.19
2023-01-27T09:05:38.986Z,88.36
2023-01-27T09:07:40.776Z,88.13
2023-01-27T09:09:42.597Z,87.89
2023-01-27T09:11:44.292Z,87.6
2023-01-27T09:13:45.703Z,87.68
2023-01-27T09:15:47.003Z,87.55
2023-01-27T09:17:48.397Z,87.92
2023-01-27T09:19:49.499Z,88.02
2023-01-27T09:21:50.721Z,87.65
2023-01-27T09:23:52.425Z,87.85
2023-01-27T09:25:54.388Z,87.74
2023-01-27T09:27:55.440Z,87.86
2023-01-27T09:31:58.421Z,88.12
2023-01-27T09:33:59.874Z,88.26
2023-01-27T09:36:01.267Z,88.01
2023-01-27T09:38:02.733Z,88.49
2023-01-27T09:42:05.320Z,87.63
2023-01-27T09:44:07.182Z,88.16
2023-01-27T09:46:08.904Z,87.66
2023-01-27T09:48:10.206Z,87.48
2023-01-27T09:50:12.157Z,87.78
2023-01-27T09:52:13.301Z,87.83
2023-01-27T09:54:15.344Z,87.61
2023-01-27T09:56:16.925Z,87.98
2023-01-27T09:58:18.524Z,87.97
2023-01-27T10:00:20.416Z,87.16
2023-01-27T10:02:21.621Z,87.98
2023-01-27T10:04:23.261Z,87.76
2023-01-27T10:06:25.142Z,87.71
2023-01-27T10:08:26.313Z,87.32
2023-01-27T10:10:28.181Z,87.46
2023-01-27T10:14:31.289Z,87.3
2023-01-27T10:16:32.761Z,87.42
2023-01-27T10:18:34.356Z,87.4
2023-01-27T10:20:35.582Z,87.41
2023-01-27T10:24:38.275Z,87.53
2023-01-27T10:26:39.692Z,87.87
2023-01-27T10:30:42.708Z,87.26
2023-01-27T10:32:44.477Z,86.9
2023-01-27T10:34:46.512Z,86.91
2023-01-27T10:36:47.970Z,87.07
2023-01-27T10:38:49.235Z,86.66
2023-01-27T10:40:50.836Z,87.02
2023-01-27T10:42:51.955Z,86.46
2023-01-27T10:44:53.438Z,86.51
2023-01-27T10:46:54.913Z,86.78
2023-01-27T10:48:56.720Z,86.53
2023-01-27T10:50:58.031Z,86.29
2023-01-27T10:52:59.165Z,86.15
2023-01-27T10:55:01.079Z,85.68
2023-01-27T10:57:02.239Z,85.79
2023-01-27T10:59:03.954Z,85.88
2023-01-27T11:01:20.174Z,85.56
2023-01-27T11:03:06.187Z,85.69
2023-01-27T11:05:07.236Z,86.52
2023-01-27T11:07:09.012Z,85.62
2023-01-27T11:09:10.342Z,84.56
2023-01-27T11:11:12.336Z,84.45
2023-01-27T11:13:13.283Z,85.81
2023-01-27T11:15:14.613Z,86.03
2023-01-27T11:17:16.411Z,84.39
2023-01-27T11:19:17.475Z,84.14
2023-01-27T11:23:20.578Z,85.57
2023-01-27T11:25:22.531Z,85.58
2023-01-27T11:27:24.148Z,85.74
2023-01-27T11:29:25.917Z,85.22
2023-01-27T11:31:27.598Z,84.4
2023-01-27T11:33:29.227Z,85.58
2023-01-27T11:35:30.817Z,85.38
2023-01-27T11:37:31.951Z,84.52
2023-01-27T11:39:33.529Z,85.7
2023-01-27T11:41:35.314Z,84.93
2023-01-27T11:43:37.136Z,85.08
2023-01-27T11:46:22.387Z,84.67
2023-01-27T11:48:24.363Z,84.4
2023-01-27T11:50:25.496Z,85.69
2023-01-27T11:52:27.475Z,84.9
2023-01-27T11:54:28.903Z,85.73
2023-01-27T11:56:30.161Z,85.13
2023-01-27T12:00:33.058Z,84.94
2023-01-27T12:02:34.507Z,83.91
2023-01-27T12:04:35.486Z,84.66
2023-01-27T12:06:37.068Z,83.28
2023-01-27T12:08:38.507Z,82.97
2023-01-27T12:10:40.018Z,82.63
2023-01-27T12:12:41.694Z,84.05
2023-01-27T12:14:42.868Z,83.55
2023-01-27T12:16:44.280Z,82.37
2023-01-27T12:18:46.164Z,83.29
2023-01-27T12:20:48.073Z,84.36
2023-01-27T12:22:49.517Z,83.77
2023-01-27T12:24:50.822Z,83.75
2023-01-27T12:26:52.217Z,83.16
2023-01-27T12:28:54.101Z,84.39
2023-01-27T12:30:55.437Z,83.37
2023-01-27T12:32:57.206Z,84.14
2023-01-27T12:34:59.023Z,83.98
2023-01-27T12:37:00.501Z,83.57
2023-01-27T12:39:01.820Z,83.1
2023-01-27T12:43:04.546Z,82.86
2023-01-27T12:45:06.066Z,82.22
2023-01-27T12:47:07.936Z,83.03
2023-01-27T12:49:08.995Z,82.65
2023-01-27T12:51:10.826Z,82.71
2023-01-27T12:53:12.308Z,82.42
2023-01-27T12:55:14.158Z,82.38
2023-01-27T12:57:15.562Z,83.07
2023-01-27T12:59:16.844Z,82.7
2023-01-27T13:01:18.028Z,82.51
2023-01-27T13:03:19.991Z,82.47
2023-01-27T13:05:21.350Z,82.23
2023-01-27T13:07:22.872Z,82.71
2023-01-27T13:09:24.598Z,82.18
2023-01-27T13:11:26.377Z,82.56
2023-01-27T13:15:29.887Z,81.49
2023-01-27T13:17:31.580Z,82.39
2023-01-27T13:19:32.857Z,83.39
2023-01-27T13:21:33.871Z,82.1
2023-01-27T13:25:36.960Z,82.58
2023-01-27T13:27:38.339Z,81.94
2023-01-27T13:29:39.879Z,81.13
2023-01-27T13:31:41.764Z,81.36
2023-01-27T13:33:42.728Z,82.17
2023-01-27T13:35:44.501Z,82.61
2023-01-27T13:37:46.333Z,83.12
2023-01-27T13:39:47.946Z,80.88
2023-01-27T13:41:49.900Z,82.27
2023-01-27T13:43:51.362Z,80.92
2023-01-27T13:45:52.495Z,81.56
2023-01-27T13:47:54.007Z,82.36
2023-01-27T13:49:55.050Z,81.34
2023-01-27T13:51:56.339Z,82.09
2023-01-27T13:53:58.239Z,82
2023-01-27T13:58:01.690Z,81.68
2023-01-27T14:00:03.677Z,83.33
2023-01-27T14:02:05.336Z,82.8
2023-01-27T14:04:07.016Z,81.57
2023-01-27T14:08:10.528Z,81.96
2023-01-27T14:10:12.019Z,83.1
2023-01-27T14:12:21.555Z,83.2
2023-01-27T14:14:15.330Z,83.28
2023-01-27T14:16:16.620Z,83.9
2023-01-27T14:18:17.633Z,83.19
2023-01-27T14:20:18.909Z,83.36
2023-01-27T14:22:20.843Z,83.59
2023-01-27T14:24:22.708Z,83.84
2023-01-27T14:26:23.724Z,83.27
2023-01-27T14:28:24.956Z,84.17
2023-01-27T14:30:26.048Z,83.99
2023-01-27T14:32:27.552Z,83.53
2023-01-27T14:34:29.150Z,84.14
2023-01-27T14:36:30.488Z,83.31
2023-01-27T14:38:31.689Z,84.19
2023-01-27T14:40:33.135Z,84.35
2023-01-27T14:42:35.011Z,84.11
2023-01-27T14:44:43.765Z,84.24
2023-01-27T14:46:38.493Z,84.17
2023-01-27T14:50:41.380Z,83.64
2023-01-27T14:52:42.692Z,84.22
2023-01-27T14:56:45.305Z,85.49
2023-01-27T14:58:47.155Z,84.45
2023-01-27T15:00:48.807Z,84.47
2023-01-27T15:02:49.852Z,83.54
2023-01-27T15:06:53.361Z,83.82
2023-01-27T15:08:54.874Z,83.65
2023-01-27T15:10:56.067Z,83.65
2023-01-27T15:12:57.894Z,83.95
2023-01-27T15:14:59.582Z,83.83
2023-01-27T15:17:01.406Z,83.84
2023-01-27T15:19:03.535Z,83.96
2023-01-27T15:21:04.678Z,84.18
2023-01-27T15:23:06.205Z,84.02
2023-01-27T15:25:07.415Z,83.89
2023-01-27T15:27:09.482Z,83.85
2023-01-27T15:29:11.475Z,85.09
2023-01-27T15:31:12.876Z,85.08
2023-01-27T15:33:14.628Z,84.84
2023-01-27T15:35:16.216Z,84.97
2023-01-27T15:39:21.756Z,85.01
2023-01-27T15:41:20.954Z,85.07
2023-01-27T15:43:22.135Z,85.04
2023-01-27T15:45:23.661Z,85
2023-01-27T15:47:25.180Z,85.18
2023-01-27T15:49:26.231Z,85.28
2023-01-27T15:51:27.945Z,85.57
2023-01-27T15:53:29.322Z,85.63
2023-01-27T15:55:31.234Z,85.55
2023-01-27T15:57:32.572Z,85.32
2023-01-27T15:59:34.407Z,85.66
2023-01-27T16:01:35.421Z,85.54
2023-01-27T16:03:37.185Z,85.77
2023-01-27T16:05:39.213Z,85.75
2023-01-27T16:07:40.920Z,85.87
2023-01-27T16:09:42.873Z,85.94
2023-01-27T16:11:44.449Z,85.88
2023-01-27T16:13:45.756Z,85.87
2023-01-27T16:15:47.379Z,86.07
2023-01-27T16:17:48.779Z,86.73
2023-01-27T16:21:52.144Z,86.07
2023-01-27T16:23:53.514Z,86.3
2023-01-27T16:25:55.472Z,86.37
2023-01-27T16:27:56.817Z,86.28
2023-01-27T16:32:00.734Z,86.53
2023-01-27T16:34:02.132Z,86.63
2023-01-27T16:36:04.039Z,86.63
2023-01-27T16:38:05.199Z,86.48
2023-01-27T16:40:06.464Z,86.39
2023-01-27T16:42:08.431Z,86.11
2023-01-27T16:44:10.367Z,86.09
2023-01-27T16:46:11.514Z,86.39
2023-01-27T16:48:13.121Z,85.91
2023-01-27T16:50:14.643Z,85.82
2023-01-27T16:52:15.926Z,86.08
2023-01-27T16:54:17.167Z,86.15
2023-01-27T16:56:18.580Z,86.14
2023-01-27T16:58:19.694Z,86.63
2023-01-27T17:00:21.631Z,86.29
2023-01-27T17:02:23.064Z,86.46
2023-01-27T17:04:24.452Z,85.98
2023-01-27T17:06:26.256Z,86
2023-01-27T17:08:27.779Z,86.56
2023-01-27T17:10:34.609Z,85.83
2023-01-27T17:14:32.234Z,86.27
2023-01-27T17:16:33.419Z,85.88
2023-01-27T17:18:43.625Z,86.34
2023-01-27T17:20:35.908Z,86.1
2023-01-27T17:22:37.607Z,85.86
2023-01-27T17:24:38.818Z,86.18
2023-01-27T17:26:40.136Z,86.08
2023-01-27T17:28:42.071Z,86.17
2023-01-27T17:30:43.572Z,86.29
2023-01-27T17:32:45.014Z,86.11
2023-01-27T17:34:46.978Z,86.19
2023-01-27T17:36:48.185Z,86.24
2023-01-27T17:38:49.637Z,86.59
2023-01-27T17:40:51.360Z,86.45
2023-01-27T17:42:52.393Z,86.33
2023-01-27T17:44:54.505Z,86.26
2023-01-27T17:46:55.645Z,86.44
2023-01-27T17:48:57.031Z,86.5
2023-01-27T17:50:58.201Z,86.61
2023-01-27T17:52:59.777Z,86.75
2023-01-27T17:57:02.797Z,86.77
2023-01-27T17:59:04.453Z,86.23
2023-01-27T18:01:06.363Z,86.34
2023-01-27T18:03:08.096Z,86.39
2023-01-27T18:05:09.293Z,86.14
2023-01-27T18:07:10.683Z,86.19
2023-01-27T18:09:12.346Z,86.36
2023-01-27T18:11:12.880Z,86.83
2023-01-27T18:13:14.208Z,86.9
2023-01-27T18:15:15.832Z,87.06
2023-01-27T18:17:17.356Z,87.11
2023-01-27T18:19:18.441Z,87.24
2023-01-27T18:21:19.659Z,87.43
2023-01-27T18:23:20.932Z,87.51
2023-01-27T18:25:22.700Z,87.68
2023-01-27T18:29:25.783Z,87.93
2023-01-27T18:30:09.709Z,87.93
2023-01-27T18:34:12.198Z,88.09
2023-01-27T18:36:13.719Z,88.23
2023-01-27T18:40:16.993Z,88.55
2023-01-27T18:42:18.135Z,88.63
2023-01-27T18:44:20.151Z,88.89
2023-01-27T18:46:21.703Z,89.15
2023-01-27T18:48:23.461Z,89.21
2023-01-27T18:50:24.990Z,89.25
2023-01-27T18:52:26.944Z,89.15
2023-01-27T18:54:28.835Z,89.12
2023-01-27T18:56:30.593Z,89.19
2023-01-27T18:58:31.928Z,89.23
2023-01-27T19:00:33.459Z,89.47
2023-01-27T19:02:34.945Z,89.58
2023-01-27T19:04:36.654Z,89.6
2023-01-27T19:06:38.552Z,89.51
2023-01-27T19:08:40.615Z,89.61
2023-01-27T19:10:42.503Z,89.57
2023-01-27T19:12:43.693Z,89.6
2023-01-27T19:16:46.822Z,89.46
2023-01-27T19:18:48.525Z,89.08
2023-01-27T19:20:49.788Z,88.99
2023-01-27T19:22:51.176Z,88.97
2023-01-27T19:24:52.315Z,88.59
2023-01-27T19:26:54.132Z,88.71
2023-01-27T19:28:56.027Z,88.64
2023-01-27T19:30:57.819Z,88.86
2023-01-27T19:32:59.492Z,88.82
2023-01-27T19:35:00.805Z,88.63
2023-01-27T19:37:02.415Z,88.57
2023-01-27T19:39:04.147Z,88.87
2023-01-27T19:41:06.086Z,89.04
2023-01-27T19:43:07.404Z,88.85
2023-01-27T19:45:09.065Z,88.92
2023-01-27T19:47:10.551Z,88.7
2023-01-27T19:49:11.800Z,88.46
2023-01-27T19:51:13.399Z,88.56
2023-01-27T19:53:15.072Z,88.54
2023-01-27T19:55:16.805Z,88.55
2023-01-27T19:57:18.393Z,88.29
2023-01-27T19:59:19.811Z,88.15
2023-01-27T20:01:21.103Z,88.08
2023-01-27T20:05:23.922Z,88.4
2023-01-27T20:07:25.783Z,88.51
2023-01-27T20:09:27.651Z,88.7
2023-01-27T20:11:28.779Z,88.49
2023-01-27T20:15:31.753Z,88.48
2023-01-27T20:17:32.861Z,88.56
2023-01-27T20:19:34.849Z,88.73
2023-01-27T20:21:36.069Z,88.44
2023-01-27T20:23:37.919Z,88.19
2023-01-27T20:25:39.783Z,88.01
2023-01-27T20:27:41.150Z,87.93
2023-01-27T20:29:42.782Z,87.82
2023-01-27T20:31:44.369Z,87.39
2023-01-27T20:33:45.670Z,87.42
2023-01-27T20:35:47.211Z,87.14
2023-01-27T20:37:48.614Z,87.13
2023-01-27T20:39:50.147Z,87.35
2023-01-27T20:41:51.742Z,87.6
2023-01-27T20:43:53.668Z,87.87
2023-01-27T20:45:54.827Z,87.67
2023-01-27T20:47:56.187Z,87.74
2023-01-27T20:49:57.979Z,87.35
2023-01-27T20:51:59.658Z,87.32
2023-01-27T20:54:01.172Z,87.35
2023-01-27T20:58:04.347Z,87.22
2023-01-27T21:00:06.274Z,87.23
2023-01-27T21:02:07.824Z,87.27
2023-01-27T21:04:09.388Z,87.13
2023-01-27T21:06:11.368Z,87.42
2023-01-27T21:08:13.374Z,87.42
2023-01-27T21:10:15.140Z,87.25
2023-01-27T21:12:16.885Z,87.46
2023-01-27T21:14:18.696Z,87.64
2023-01-27T21:16:20.708Z,87.5
2023-01-27T21:18:22.010Z,87.3
2023-01-27T21:20:24.005Z,87.33
2023-01-27T21:22:25.768Z,87.46
2023-01-27T21:24:27.148Z,87.48
2023-01-27T21:26:28.622Z,87.63
2023-01-27T21:30:31.698Z,87.24
2023-01-27T21:32:33.199Z,87.02
2023-01-27T21:34:34.734Z,87.06
2023-01-27T21:36:36.566Z,87.14
2023-01-27T21:40:39.210Z,87.15
2023-01-27T21:42:40.816Z,87.26
2023-01-27T21:44:42.037Z,87
2023-01-27T21:46:43.655Z,87.14
2023-01-27T21:48:45.639Z,87.06
2023-01-27T21:50:47.400Z,87.29
2023-01-27T21:52:49.065Z,87.14
2023-01-27T21:54:50.199Z,87.06
2023-01-27T21:56:51.627Z,87.07
2023-01-27T21:58:53.367Z,87.13
2023-01-27T22:00:55.228Z,87.28
2023-01-27T22:02:57.091Z,87.36
2023-01-27T22:07:00.115Z,87.07
2023-01-27T22:09:02.045Z,87.13
2023-01-27T22:11:03.605Z,86.94
2023-01-27T22:13:05.133Z,86.94
2023-01-27T22:15:06.305Z,87.02
2023-01-27T22:17:08.079Z,87.05
2023-01-27T22:19:09.213Z,86.88
2023-01-27T22:21:10.230Z,86.78
2023-01-27T22:23:12.195Z,86.97
2023-01-27T22:25:13.770Z,87.37
2023-01-27T22:27:14.548Z,87.53
2023-01-27T22:29:15.935Z,87.54
2023-01-27T22:31:17.130Z,87.66
2023-01-27T22:33:18.759Z,87.68
2023-01-27T22:35:19.994Z,87.74
2023-01-27T22:37:21.055Z,87.87
2023-01-27T22:39:22.922Z,87.96
2023-01-27T22:41:24.285Z,87.93
2023-01-27T22:43:25.577Z,87.99
2023-01-27T22:45:27.149Z,88.34
2023-01-27T22:47:29.131Z,88.54
2023-01-27T22:51:32.089Z,88.41
2023-01-27T22:55:34.581Z,88.24
2023-01-27T22:57:35.917Z,88.38
2023-01-27T22:59:37.314Z,88.27
2023-01-27T23:01:38.506Z,88.41
2023-01-27T23:03:40.131Z,88.47
2023-01-27T23:05:41.851Z,88.65
2023-01-27T23:07:43.599Z,88.79
2023-01-27T23:09:45.482Z,88.97
2023-01-27T23:11:46.873Z,89.42
2023-01-27T23:13:48.599Z,89.49
2023-01-27T23:15:50.180Z,89.52
2023-01-27T23:17:51.930Z,89.67
2023-01-27T23:19:53.194Z,89.65
2023-01-27T23:21:55.248Z,89.58
2023-01-27T23:23:57.019Z,89.52
2023-01-27T23:25:58.229Z,89.51
2023-01-27T23:27:59.276Z,89.59
2023-01-27T23:30:00.648Z,89.61
2023-01-27T23:32:02.322Z,89.69
2023-01-27T23:34:03.693Z,89.72
2023-01-27T23:38:14.121Z,89.4
2023-01-27T23:40:08.954Z,89.37
2023-01-27T23:42:10.268Z,89.46
2023-01-27T23:44:11.372Z,89.38
2023-01-27T23:46:13.168Z,89.54
2023-01-27T23:48:14.887Z,89.68
2023-01-27T23:50:16.791Z,89.73
2023-01-27T23:52:18.468Z,89.8
2023-01-27T23:54:19.849Z,89.73
2023-01-27T23:56:21.110Z,89.79
2023-01-27T23:58:22.399Z,89.96
